Time;durP1;ratioP1;P1;durP2;ratioP2;P2;SDS_P1;SDS_P2;PMS_P1;PMS_P2;Temp;Humidity;BMP_temperature;BMP_pressure;BME280_temperature;BME280_humidity;BME280_pressure;Samples;Min_cycle;Max_cycle;Signal;HPM_P1;HPM_P2
2022/01/23 00:00:19;;;;;;;33.40;26.00;;;3.30;99.90;;;;;;4903943;29;20200;-81
2022/01/23 00:02:50;;;;;;;24.90;22.47;;;3.40;99.90;;;;;;4886165;29;20201;-81
2022/01/23 00:05:20;;;;;;;25.53;22.93;;;3.40;99.90;;;;;;4882509;29;20464;-80
2022/01/23 00:07:51;;;;;;;24.47;22.07;;;3.40;99.90;;;;;;4911228;29;20455;-80
2022/01/23 00:10:19;;;;;;;26.47;23.60;;;3.40;99.90;;;;;;4911568;29;20197;-80
2022/01/23 00:12:53;;;;;;;27.07;24.13;;;3.40;99.90;;;;;;4899644;29;20235;-80
2022/01/23 00:18:05;;;;;;;38.87;30.90;;;3.40;99.90;;;;;;4890467;29;20211;-80
2022/01/23 00:20:35;;;;;;;31.53;28.03;;;3.30;99.90;;;;;;4896960;29;20227;-78
2022/01/23 00:23:13;;;;;;;29.90;25.23;;;3.30;99.90;;;;;;4889569;29;20256;-80
2022/01/23 00:31:16;;;;;;;25.70;23.00;;;3.30;99.90;;;;;;4909715;29;20212;-79
2022/01/23 00:33:44;;;;;;;26.40;23.70;;;3.30;99.90;;;;;;4898165;29;20455;-82
2022/01/23 00:36:17;;;;;;;28.20;24.30;;;3.30;99.90;;;;;;4898101;29;20212;-81
2022/01/23 00:38:46;;;;;;;25.37;22.87;;;3.30;99.90;;;;;;4896401;29;20592;-82
2022/01/23 00:41:13;;;;;;;25.70;23.20;;;3.30;99.90;;;;;;4899527;29;20534;-82
2022/01/23 00:43:43;;;;;;;25.40;22.73;;;3.30;99.90;;;;;;4891246;29;20224;-82
2022/01/23 00:46:22;;;;;;;25.73;23.03;;;3.30;99.90;;;;;;4895923;29;20196;-82
2022/01/23 00:49:24;;;;;;;25.53;22.80;;;3.30;99.90;;;;;;4895132;29;21044;-82
2022/01/23 00:51:57;;;;;;;26.07;23.27;;;3.30;99.90;;;;;;4895168;29;20458;-81
2022/01/23 00:54:27;;;;;;;25.43;22.77;;;3.30;99.90;;;;;;4893940;29;20232;-82
2022/01/23 00:56:58;;;;;;;24.27;21.87;;;3.30;99.90;;;;;;4886319;29;20240;-81
2022/01/23 00:59:25;;;;;;;24.87;22.27;;;3.30;99.90;;;;;;4893414;29;20272;-81
2022/01/23 01:01:52;;;;;;;26.20;23.47;;;3.30;99.90;;;;;;4910489;29;20193;-81
2022/01/23 01:04:20;;;;;;;24.23;21.70;;;3.30;99.90;;;;;;4897067;29;20769;-80
2022/01/23 01:06:47;;;;;;;25.13;22.50;;;3.30;99.90;;;;;;4895084;29;20196;-81
2022/01/23 01:09:14;;;;;;;24.37;21.87;;;3.30;99.90;;;;;;4892554;29;20233;-80
2022/01/23 01:11:58;;;;;;;24.70;22.07;;;3.30;99.90;;;;;;4894080;29;20213;-80
2022/01/23 01:17:14;;;;;;;23.97;21.60;;;3.40;99.90;;;;;;4892719;29;20205;-79
2022/01/23 01:31:05;;;;;;;24.60;21.83;;;3.40;99.90;;;;;;4892904;29;20452;-80
2022/01/23 01:33:43;;;;;;;26.70;23.13;;;3.40;99.90;;;;;;4893905;29;20215;-80
2022/01/23 01:36:25;;;;;;;26.97;24.13;;;3.40;99.90;;;;;;4894016;29;20472;-80
2022/01/23 01:38:57;;;;;;;24.93;22.43;;;3.40;99.90;;;;;;4900016;29;20719;-80
2022/01/23 01:41:27;;;;;;;24.57;21.97;;;3.40;99.90;;;;;;4892509;29;20204;-80
2022/01/23 01:43:59;;;;;;;24.77;22.40;;;3.40;99.90;;;;;;4893931;29;20223;-80
2022/01/23 01:46:49;;;;;;;24.27;21.77;;;3.40;99.90;;;;;;4898734;29;20218;-80
2022/01/23 01:49:25;;;;;;;25.83;22.07;;;3.40;99.90;;;;;;4892888;29;20579;-80
2022/01/23 01:51:57;;;;;;;26.73;24.03;;;3.40;99.90;;;;;;4895256;29;20207;-79
2022/01/23 01:54:27;;;;;;;25.57;22.80;;;3.40;99.90;;;;;;4897547;29;20570;-81
2022/01/23 01:57:05;;;;;;;26.30;23.60;;;3.40;99.90;;;;;;4895438;29;20480;-81
2022/01/23 02:00:00;;;;;;;26.23;23.53;;;3.50;99.90;;;;;;4897272;29;20193;-82
2022/01/23 02:03:05;;;;;;;26.10;23.43;;;3.40;99.90;;;;;;4906342;29;20215;-81
2022/01/23 02:08:38;;;;;;;23.83;21.37;;;3.40;99.90;;;;;;4902284;29;20457;-81
2022/01/23 02:11:11;;;;;;;26.03;23.00;;;3.40;99.90;;;;;;4895959;29;20201;-81
2022/01/23 02:13:44;;;;;;;25.17;22.13;;;3.40;99.90;;;;;;4920665;23;21220;-78
2022/01/23 02:25:12;;;;;;;25.63;22.23;;;3.40;99.90;;;;;;4885664;29;20224;-76
2022/01/23 02:52:47;;;;;;;27.43;22.83;;;3.40;99.90;;;;;;4885949;29;20264;-78
2022/01/23 02:55:20;;;;;;;27.73;24.30;;;3.30;99.90;;;;;;4887202;29;20231;-77
2022/01/23 02:57:56;;;;;;;27.67;24.23;;;3.40;99.90;;;;;;4884223;29;20244;-78
2022/01/23 03:00:34;;;;;;;25.90;22.97;;;3.40;99.90;;;;;;4875456;29;20200;-78
2022/01/23 03:03:40;;;;;;;27.77;23.33;;;3.30;99.90;;;;;;4898195;29;20225;-78
2022/01/23 03:06:36;;;;;;;24.73;22.13;;;3.30;99.90;;;;;;4888028;29;20197;-78
2022/01/23 03:12:07;;;;;;;26.67;23.83;;;3.30;99.90;;;;;;4886987;29;20280;-78
2022/01/23 03:14:48;;;;;;;25.20;22.60;;;3.30;99.90;;;;;;4895316;29;20252;-79
2022/01/23 03:25:49;;;;;;;27.43;23.30;;;3.30;99.90;;;;;;4881801;29;20216;-77
2022/01/23 03:28:22;;;;;;;24.40;21.90;;;3.30;99.90;;;;;;4881296;29;20204;-77
2022/01/23 03:31:04;;;;;;;25.43;22.80;;;3.40;99.90;;;;;;4898574;29;20259;-77
2022/01/23 03:33:32;;;;;;;24.63;22.00;;;3.40;99.90;;;;;;4874345;29;20472;-77
2022/01/23 03:35:58;;;;;;;25.00;22.43;;;3.40;99.90;;;;;;4881695;29;20209;-77
2022/01/23 03:38:25;;;;;;;24.30;21.83;;;3.50;99.90;;;;;;4881378;29;21001;-78
2022/01/23 03:40:52;;;;;;;24.30;21.90;;;3.40;99.90;;;;;;4880992;29;20197;-77
2022/01/23 03:43:27;;;;;;;23.63;21.20;;;3.40;99.90;;;;;;4881274;29;20209;-77
2022/01/23 03:46:19;;;;;;;24.03;21.43;;;3.40;99.90;;;;;;4881267;29;20200;-77
2022/01/23 03:51:30;;;;;;;22.10;19.83;;;3.50;99.90;;;;;;4873340;29;20480;-77
2022/01/23 03:53:56;;;;;;;23.23;19.83;;;3.50;99.90;;;;;;4881497;29;20479;-77
2022/01/23 03:56:24;;;;;;;21.20;19.10;;;3.50;99.90;;;;;;4880569;29;20299;-77
2022/01/23 03:58:55;;;;;;;21.03;19.00;;;3.60;99.90;;;;;;4865039;29;20689;-77
2022/01/23 04:01:22;;;;;;;23.70;21.20;;;3.60;99.90;;;;;;4880988;29;20223;-77
2022/01/23 04:03:54;;;;;;;22.83;20.43;;;3.50;99.90;;;;;;4894250;29;20658;-78
2022/01/23 04:06:21;;;;;;;22.90;20.47;;;3.50;99.90;;;;;;4874662;29;20591;-77
2022/01/23 04:08:49;;;;;;;26.87;22.20;;;3.50;99.90;;;;;;4872877;29;20240;-77
2022/01/23 04:11:21;;;;;;;22.00;19.90;;;3.50;99.90;;;;;;4898004;29;20232;-77
2022/01/23 04:13:53;;;;;;;24.20;21.37;;;3.50;99.90;;;;;;4887566;29;20256;-78
2022/01/23 04:16:43;;;;;;;19.17;14.57;;;3.50;99.90;;;;;;4881344;29;20241;-77
2022/01/23 04:19:29;;;;;;;21.60;15.33;;;3.50;99.90;;;;;;4880476;29;20209;-77
2022/01/23 04:33:15;;;;;;;27.90;16.77;;;3.50;99.90;;;;;;4885327;29;20189;-78
2022/01/23 04:45:11;;;;;;;29.27;23.47;;;3.50;99.90;;;;;;4887056;29;20468;-77
2022/01/23 05:00:46;;;;;;;28.33;23.90;;;3.50;99.90;;;;;;4872669;29;20778;-77
2022/01/23 05:06:24;;;;;;;29.53;22.77;;;3.40;99.90;;;;;;4892479;29;20292;-77
2022/01/23 05:09:11;;;;;;;27.43;21.73;;;3.50;99.90;;;;;;4879590;29;20201;-77
2022/01/23 05:11:49;;;;;;;26.80;17.10;;;3.50;99.90;;;;;;4879550;29;20209;-77
2022/01/23 05:14:28;;;;;;;29.37;25.33;;;3.40;99.90;;;;;;4879212;29;20248;-77
2022/01/23 05:16:55;;;;;;;32.87;23.73;;;3.40;99.90;;;;;;4877197;29;20248;-78
2022/01/23 05:19:22;;;;;;;28.70;22.63;;;3.40;99.90;;;;;;4879633;29;20263;-77
2022/01/23 05:22:11;;;;;;;33.13;26.10;;;3.40;99.90;;;;;;4896566;29;20957;-77
2022/01/23 05:24:40;;;;;;;30.50;23.27;;;3.40;99.90;;;;;;4888579;29;20843;-78
2022/01/23 05:27:10;;;;;;;28.37;24.03;;;3.40;99.90;;;;;;4876725;29;20218;-77
2022/01/23 05:29:38;;;;;;;24.37;17.47;;;3.40;99.90;;;;;;4879886;29;20204;-77
2022/01/23 05:32:07;;;;;;;31.77;22.80;;;3.40;99.90;;;;;;4879659;29;20441;-78
2022/01/23 05:34:37;;;;;;;32.90;19.53;;;3.40;99.90;;;;;;4896375;29;20224;-77
2022/01/23 05:37:17;;;;;;;30.50;25.70;;;3.40;99.90;;;;;;4879730;29;20227;-78
2022/01/23 05:39:46;;;;;;;32.93;25.53;;;3.40;99.90;;;;;;4882705;29;20300;-77
2022/01/23 05:42:13;;;;;;;27.70;19.30;;;3.40;99.90;;;;;;4882539;29;20465;-79
2022/01/23 05:44:42;;;;;;;26.53;16.67;;;3.40;99.90;;;;;;4881681;29;20223;-81
2022/01/23 05:47:12;;;;;;;23.53;15.33;;;3.40;99.90;;;;;;4865793;29;20284;-78
2022/01/23 05:50:07;;;;;;;24.50;16.70;;;3.40;99.90;;;;;;4901019;29;20268;-78
2022/01/23 05:52:41;;;;;;;27.98;21.77;;;3.30;99.90;;;;;;4886640;29;20449;-79
2022/01/23 05:55:27;;;;;;;24.48;18.65;;;3.30;99.90;;;;;;4895815;29;20477;-79
2022/01/23 05:58:11;;;;;;;22.73;16.03;;;3.30;99.90;;;;;;4879861;29;20311;-79
2022/01/23 06:00:48;;;;;;;26.30;22.37;;;3.30;99.90;;;;;;4880833;29;20208;-79
2022/01/23 06:03:18;;;;;;;30.27;23.03;;;3.30;99.90;;;;;;4880024;29;20209;-79
2022/01/23 06:05:50;;;;;;;26.37;21.40;;;3.30;99.90;;;;;;4882532;29;20208;-78
2022/01/23 06:08:23;;;;;;;24.87;21.40;;;3.30;99.90;;;;;;4898436;29;20197;-78
2022/01/23 06:10:57;;;;;;;24.17;21.57;;;3.30;99.90;;;;;;4883784;29;20205;-79
2022/01/23 06:13:41;;;;;;;24.80;22.27;;;3.30;99.90;;;;;;4884143;29;20228;-78
2022/01/23 06:16:10;;;;;;;25.77;22.10;;;3.30;99.90;;;;;;4884254;29;20197;-77
2022/01/23 06:18:40;;;;;;;25.23;21.33;;;3.30;99.90;;;;;;4884277;29;20244;-77
2022/01/23 06:21:36;;;;;;;23.40;20.93;;;3.30;99.90;;;;;;4901223;29;20448;-77
2022/01/23 06:24:26;;;;;;;22.48;19.58;;;3.30;99.90;;;;;;4883869;29;20549;-77
2022/01/23 06:27:06;;;;;;;26.27;22.37;;;3.30;99.90;;;;;;4885080;29;20223;-78
2022/01/23 06:29:38;;;;;;;27.30;22.77;;;3.30;99.90;;;;;;4881780;29;20292;-77
2022/01/23 06:32:06;;;;;;;29.37;23.90;;;3.30;99.90;;;;;;4882168;29;20204;-77
2022/01/23 06:34:33;;;;;;;27.83;23.23;;;3.30;99.90;;;;;;4881732;29;20469;-77
2022/01/23 06:37:00;;;;;;;27.03;23.40;;;3.30;99.90;;;;;;4881768;29;20240;-77
2022/01/23 06:39:29;;;;;;;28.73;22.77;;;3.30;99.90;;;;;;4881789;29;20197;-77
2022/01/23 06:42:01;;;;;;;30.40;23.70;;;3.30;99.90;;;;;;4881963;29;20211;-78
2022/01/23 06:44:42;;;;;;;30.57;23.87;;;3.30;99.90;;;;;;4897597;29;20231;-77
2022/01/23 06:47:14;;;;;;;27.77;22.93;;;3.30;99.90;;;;;;4887283;29;20543;-76
2022/01/23 06:49:42;;;;;;;25.90;22.57;;;3.30;99.90;;;;;;4877798;29;20235;-77
2022/01/23 06:52:13;;;;;;;24.70;22.00;;;3.40;99.90;;;;;;4881640;29;20453;-78
2022/01/23 06:54:47;;;;;;;28.80;23.03;;;3.30;99.90;;;;;;4879426;29;20509;-76
2022/01/23 06:57:14;;;;;;;27.63;23.43;;;3.40;99.90;;;;;;4881693;29;20236;-77
2022/01/23 06:59:42;;;;;;;30.63;24.40;;;3.40;99.90;;;;;;4888903;29;20551;-78
2022/01/23 07:02:47;;;;;;;31.33;24.43;;;3.30;99.90;;;;;;4898755;29;20220;-77
2022/01/23 07:05:22;;;;;;;32.07;25.30;;;3.30;99.90;;;;;;4885028;29;20485;-77
2022/01/23 07:07:59;;;;;;;28.87;24.60;;;3.30;99.90;;;;;;4878981;29;20462;-78
2022/01/23 07:10:53;;;;;;;28.67;23.33;;;3.30;99.90;;;;;;4895643;29;20431;-76
2022/01/23 07:13:28;;;;;;;31.50;25.00;;;3.30;99.90;;;;;;4876611;29;20460;-77
2022/01/23 07:16:10;;;;;;;30.47;25.00;;;3.30;99.90;;;;;;4884241;29;20468;-77
2022/01/23 07:19:00;;;;;;;28.93;23.17;;;3.30;99.90;;;;;;4878612;29;20698;-77
2022/01/23 07:21:33;;;;;;;26.37;22.63;;;3.40;99.90;;;;;;4882022;29;20224;-77
2022/01/23 07:24:00;;;;;;;29.20;23.57;;;3.40;99.90;;;;;;4884640;29;20761;-77
2022/01/23 07:26:28;;;;;;;28.87;24.17;;;3.40;99.90;;;;;;4882311;29;20205;-76
2022/01/23 07:29:02;;;;;;;25.87;23.10;;;3.40;99.90;;;;;;4879659;29;20195;-77
2022/01/23 07:31:55;;;;;;;26.77;22.57;;;3.30;99.90;;;;;;4882701;29;20209;-77
2022/01/23 07:34:22;;;;;;;27.73;22.53;;;3.40;99.90;;;;;;4880475;29;20224;-77
2022/01/23 07:36:49;;;;;;;26.00;23.13;;;3.40;99.90;;;;;;4881077;29;20200;-77
2022/01/23 07:39:30;;;;;;;23.07;20.67;;;3.40;99.90;;;;;;4881514;29;20210;-77
2022/01/23 07:42:05;;;;;;;25.00;21.17;;;3.40;99.90;;;;;;4881002;29;20207;-77
2022/01/23 07:44:50;;;;;;;25.07;21.80;;;3.40;99.90;;;;;;4898329;29;20513;-77
2022/01/23 07:47:36;;;;;;;25.80;21.83;;;3.40;99.90;;;;;;4897427;29;20213;-77
2022/01/23 07:50:36;;;;;;;26.80;22.73;;;3.40;99.90;;;;;;4879006;29;20485;-77
2022/01/23 07:53:21;;;;;;;26.70;21.63;;;3.40;99.90;;;;;;4900669;29;20441;-77
2022/01/23 07:55:54;;;;;;;25.37;21.67;;;3.50;99.90;;;;;;4883384;29;20287;-77
2022/01/23 07:58:32;;;;;;;27.53;22.70;;;3.50;99.90;;;;;;4883370;29;20212;-78
2022/01/23 08:01:05;;;;;;;26.70;23.57;;;3.50;99.90;;;;;;4900162;29;20211;-78
2022/01/23 08:03:34;;;;;;;25.40;22.50;;;3.50;99.90;;;;;;4876130;29;20201;-79
2022/01/23 08:06:13;;;;;;;24.43;21.80;;;3.50;99.90;;;;;;4880293;29;20212;-80
2022/01/23 08:08:44;;;;;;;26.33;21.23;;;3.50;99.90;;;;;;4893950;29;20260;-77
2022/01/23 08:11:16;;;;;;;25.43;22.17;;;3.60;99.90;;;;;;4897098;29;20197;-76
2022/01/23 08:13:44;;;;;;;25.53;22.40;;;3.60;99.90;;;;;;4897848;29;20260;-80
2022/01/23 08:16:11;;;;;;;29.80;24.07;;;3.60;99.90;;;;;;4901204;29;20302;-80
2022/01/23 08:18:41;;;;;;;26.37;23.33;;;3.60;99.90;;;;;;4879811;29;20311;-77
2022/01/23 08:21:08;;;;;;;31.43;24.60;;;3.60;99.90;;;;;;4896616;29;20220;-77
2022/01/23 08:23:38;;;;;;;26.03;22.77;;;3.50;99.90;;;;;;4896607;29;20200;-76
2022/01/23 08:26:04;;;;;;;27.47;22.67;;;3.60;99.90;;;;;;4896540;29;20196;-76
2022/01/23 08:28:31;;;;;;;25.30;22.50;;;3.60;99.90;;;;;;4898787;29;20197;-76
2022/01/23 08:30:59;;;;;;;25.20;22.43;;;3.60;99.90;;;;;;4876125;29;20269;-76
2022/01/23 08:33:27;;;;;;;26.43;23.30;;;3.60;99.90;;;;;;4876370;29;20689;-76
2022/01/23 08:35:56;;;;;;;31.30;22.83;;;3.70;99.90;;;;;;4879443;29;20261;-76
2022/01/23 08:38:24;;;;;;;25.20;22.47;;;3.70;99.90;;;;;;4879528;29;20674;-76
2022/01/23 08:41:49;;;;;;;26.70;23.37;;;3.70;99.90;;;;;;4879884;29;20208;-76
2022/01/23 08:43:47;;;;;;;24.47;21.83;;;3.70;99.90;;;;;;4895578;29;20710;-77
2022/01/23 08:46:15;;;;;;;24.00;21.53;;;3.70;99.90;;;;;;4876799;29;20604;-76
2022/01/23 08:48:42;;;;;;;24.83;21.67;;;3.80;99.90;;;;;;4885377;29;20234;-77
2022/01/23 08:51:09;;;;;;;24.47;21.50;;;3.80;99.90;;;;;;4896355;29;20200;-76
2022/01/23 08:53:36;;;;;;;24.53;21.80;;;3.80;99.90;;;;;;4879634;29;20678;-76
2022/01/23 08:56:04;;;;;;;26.00;21.47;;;3.80;99.90;;;;;;4879005;29;20273;-76
2022/01/23 08:58:36;;;;;;;22.53;20.23;;;3.80;99.90;;;;;;4901946;23;20237;-80
2022/01/23 09:01:18;;;;;;;23.47;20.67;;;3.90;99.90;;;;;;4890736;29;20213;-83
2022/01/23 09:03:50;;;;;;;22.43;20.13;;;4.00;99.90;;;;;;4908770;29;20688;-79
2022/01/23 09:06:22;;;;;;;22.27;19.90;;;4.00;99.90;;;;;;4897071;29;20725;-80
2022/01/23 09:08:51;;;;;;;23.03;20.20;;;4.10;99.90;;;;;;4885321;29;20656;-80
2022/01/23 09:11:38;;;;;;;21.33;18.90;;;4.20;99.90;;;;;;4883606;29;20205;-80
2022/01/23 09:14:07;;;;;;;20.47;18.37;;;4.20;99.90;;;;;;4901848;29;20342;-79
2022/01/23 09:16:38;;;;;;;22.33;19.97;;;4.30;99.90;;;;;;4884472;29;20674;-80
2022/01/23 09:19:06;;;;;;;21.93;19.60;;;4.40;99.90;;;;;;4886403;29;20248;-81
2022/01/23 09:21:33;;;;;;;22.20;19.80;;;4.40;99.90;;;;;;4906405;29;20207;-81
2022/01/23 09:24:00;;;;;;;20.73;18.53;;;4.50;99.90;;;;;;4892844;29;20586;-81
2022/01/23 09:26:30;;;;;;;22.43;20.13;;;4.60;99.90;;;;;;4909618;29;20280;-80
2022/01/23 09:29:00;;;;;;;21.70;19.37;;;4.60;99.90;;;;;;4907661;29;20556;-79
2022/01/23 09:31:33;;;;;;;21.93;19.73;;;4.70;99.90;;;;;;4892065;29;20638;-78
2022/01/23 09:34:02;;;;;;;21.13;18.87;;;4.70;99.90;;;;;;4907883;29;20817;-81
2022/01/23 09:36:29;;;;;;;20.97;18.73;;;4.80;99.90;;;;;;4904996;29;20196;-80
2022/01/23 09:38:56;;;;;;;20.33;18.40;;;4.80;99.90;;;;;;4907340;29;20698;-77
2022/01/23 09:41:28;;;;;;;20.53;18.53;;;4.80;99.90;;;;;;4912312;29;20208;-79
2022/01/23 09:43:56;;;;;;;19.60;17.70;;;4.80;99.90;;;;;;4903842;29;20208;-79
2022/01/23 09:46:25;;;;;;;21.07;19.00;;;4.80;99.90;;;;;;4912948;29;20204;-80
2022/01/23 09:48:53;;;;;;;19.37;17.27;;;4.80;99.90;;;;;;4916656;29;20213;-79
2022/01/23 09:51:22;;;;;;;20.07;13.13;;;4.80;99.90;;;;;;4907482;29;20220;-78
2022/01/23 09:53:53;;;;;;;15.90;13.87;;;4.90;99.90;;;;;;4883930;29;20201;-79
2022/01/23 09:56:26;;;;;;;16.47;12.83;;;4.90;99.90;;;;;;4894790;29;20705;-78
2022/01/23 09:58:54;;;;;;;16.17;13.73;;;5.00;99.90;;;;;;4897125;29;20224;-80
2022/01/23 10:01:22;;;;;;;17.13;13.80;;;5.00;99.90;;;;;;4902752;29;20200;-81
2022/01/23 10:03:50;;;;;;;19.90;14.10;;;5.10;99.90;;;;;;4899550;29;20207;-82
2022/01/23 10:06:17;;;;;;;18.70;16.63;;;5.10;99.90;;;;;;4901782;29;20208;-79
2022/01/23 10:08:45;;;;;;;17.57;15.77;;;5.20;99.90;;;;;;4886225;29;20216;-82
2022/01/23 10:11:13;;;;;;;19.50;17.50;;;5.20;99.90;;;;;;4892389;29;20197;-81
2022/01/23 10:13:41;;;;;;;17.23;14.90;;;5.30;99.90;;;;;;4909237;29;20199;-81
2022/01/23 10:16:09;;;;;;;20.10;18.03;;;5.40;99.90;;;;;;4896723;29;20205;-81
2022/01/23 10:18:36;;;;;;;15.10;12.33;;;5.40;99.90;;;;;;4903553;29;20259;-82
2022/01/23 10:21:03;;;;;;;21.47;19.37;;;5.50;99.90;;;;;;4894844;29;20205;-82
2022/01/23 10:23:30;;;;;;;20.50;13.60;;;5.40;99.90;;;;;;4913926;29;20196;-82
2022/01/23 10:25:59;;;;;;;17.30;14.13;;;5.40;99.90;;;;;;4893638;29;20265;-82
2022/01/23 10:28:29;;;;;;;18.20;13.67;;;5.40;99.90;;;;;;4897959;29;20217;-82
2022/01/23 10:30:58;;;;;;;18.30;13.83;;;5.50;99.90;;;;;;4894863;29;20211;-81
2022/01/23 10:33:31;;;;;;;17.57;15.73;;;5.50;99.90;;;;;;4899171;29;20209;-81
2022/01/23 10:36:04;;;;;;;17.20;15.07;;;5.50;99.90;;;;;;4911725;29;20284;-82
2022/01/23 10:38:33;;;;;;;15.87;12.70;;;5.60;99.90;;;;;;4886560;29;20836;-81
2022/01/23 10:41:23;;;;;;;18.13;15.37;;;5.50;99.90;;;;;;4910033;29;20676;-81
2022/01/23 10:47:29;;;;;;;16.77;14.77;;;5.50;99.90;;;;;;4902470;29;20197;-80
2022/01/23 10:49:58;;;;;;;19.03;17.13;;;5.50;99.90;;;;;;4903025;29;20580;-81
2022/01/23 10:52:30;;;;;;;14.73;10.73;;;5.50;99.90;;;;;;4906298;29;20204;-82
2022/01/23 10:54:57;;;;;;;18.77;12.20;;;5.50;99.90;;;;;;4903851;29;20613;-82
2022/01/23 10:57:34;;;;;;;20.07;17.80;;;5.50;99.90;;;;;;4908704;29;20244;-82
2022/01/23 11:00:05;;;;;;;22.20;19.90;;;5.60;99.90;;;;;;4887062;29;20228;-81
2022/01/23 11:02:32;;;;;;;21.57;19.37;;;5.60;99.90;;;;;;4904840;29;20232;-78
2022/01/23 11:05:06;;;;;;;20.70;18.37;;;5.60;99.90;;;;;;4893094;29;20209;-78
2022/01/23 11:07:34;;;;;;;21.10;19.10;;;5.60;99.90;;;;;;4895401;29;20248;-80
2022/01/23 11:10:05;;;;;;;16.20;11.63;;;5.60;99.90;;;;;;4895358;29;20636;-79
2022/01/23 11:18:05;;;;;;;18.37;13.67;;;5.70;99.90;;;;;;4893789;29;20276;-79
2022/01/23 11:20:36;;;;;;;18.23;14.37;;;5.70;99.90;;;;;;4905727;29;20197;-80
2022/01/23 11:23:14;;;;;;;17.23;13.33;;;5.70;99.90;;;;;;4898373;29;20205;-80
2022/01/23 11:25:42;;;;;;;18.53;14.60;;;5.70;99.90;;;;;;4900420;29;20682;-80
2022/01/23 11:28:11;;;;;;;20.07;16.07;;;5.70;99.90;;;;;;4898454;29;20229;-80
2022/01/23 11:30:42;;;;;;;22.00;16.50;;;5.60;99.90;;;;;;4902920;29;20205;-80
2022/01/23 11:33:11;;;;;;;19.10;15.10;;;5.60;99.90;;;;;;4896069;29;20225;-80
2022/01/23 11:35:39;;;;;;;17.13;12.53;;;5.70;99.90;;;;;;4913730;29;20218;-79
2022/01/23 11:38:11;;;;;;;18.93;15.27;;;5.70;99.90;;;;;;4912441;29;20235;-79
2022/01/23 11:55:14;;;;;;;18.50;13.60;;;5.90;99.90;;;;;;4907672;29;20261;-81
2022/01/23 11:57:48;;;;;;;19.37;13.73;;;6.00;99.90;;;;;;4894093;29;20271;-80
2022/01/23 12:00:29;;;;;;;18.73;15.83;;;5.90;99.90;;;;;;4903556;29;20217;-80
2022/01/23 12:03:12;;;;;;;18.17;16.27;;;6.00;99.90;;;;;;4894404;29;20731;-80
2022/01/23 12:05:43;;;;;;;18.60;16.13;;;6.10;99.90;;;;;;4902915;29;20192;-81
2022/01/23 12:08:23;;;;;;;20.00;17.90;;;6.20;99.90;;;;;;4911502;29;20214;-80
2022/01/23 12:17:42;;;;;;;16.53;12.50;;;6.40;99.90;;;;;;4910239;29;20225;-84
2022/01/23 12:20:12;;;;;;;19.30;14.10;;;6.40;99.90;;;;;;4927508;29;20236;-79
2022/01/23 12:22:45;;;;;;;17.50;13.43;;;6.30;99.90;;;;;;4925790;29;20242;-79
2022/01/23 12:25:16;;;;;;;18.40;13.77;;;6.30;99.90;;;;;;4898751;29;20254;-80
2022/01/23 12:27:44;;;;;;;17.37;12.77;;;6.30;99.90;;;;;;4908505;29;20283;-80
2022/01/23 12:30:31;;;;;;;16.77;13.33;;;6.40;99.90;;;;;;4902466;29;20682;-82
2022/01/23 12:33:20;;;;;;;17.37;12.40;;;6.40;99.90;;;;;;4907524;29;20243;-81
2022/01/23 12:36:01;;;;;;;17.53;14.93;;;6.50;99.90;;;;;;4888487;29;20213;-79
2022/01/23 12:38:44;;;;;;;20.03;14.47;;;6.50;99.90;;;;;;4908911;29;20226;-81
2022/01/23 12:41:24;;;;;;;16.17;13.43;;;6.50;99.90;;;;;;4909610;29;20225;-80
2022/01/23 12:44:41;;;;;;;17.10;14.27;;;6.50;99.90;;;;;;4908962;29;20201;-80
2022/01/23 12:51:00;;;;;;;17.03;12.87;;;6.60;99.90;;;;;;4807513;29;20239;-79
2022/01/23 12:54:38;;;;;;;17.17;13.07;;;6.60;99.90;;;;;;4892639;29;20268;-81
2022/01/23 12:57:31;;;;;;;19.63;13.40;;;6.50;99.90;;;;;;4820741;29;20293;-81
2022/01/23 13:03:34;;;;;;;20.73;18.60;;;6.40;99.90;;;;;;4900444;29;20220;-81
2022/01/23 13:06:29;;;;;;;18.60;13.97;;;6.30;99.90;;;;;;4902063;29;20216;-82
2022/01/23 13:09:38;;;;;;;15.00;12.93;;;6.20;99.90;;;;;;4905909;29;20198;-82
2022/01/23 13:13:03;;;;;;;;;;;;;;;;;;;;;
2022/01/23 13:26:23;;;;;;;14.90;10.93;;;6.10;99.90;;;;;;4842221;29;20239;-81
2022/01/23 13:31:07;;;;;;;11.20;10.00;;;6.10;99.90;;;;;;5126460;27;20588;-80
2022/01/23 13:33:41;;;;;;;11.60;9.20;;;6.10;99.90;;;;;;5110022;28;20204;-82
2022/01/23 13:36:11;;;;;;;16.97;15.57;;;6.10;99.90;;;;;;5125333;28;20255;-79
2022/01/23 13:38:39;;;;;;;11.30;10.10;;;6.10;99.90;;;;;;5108598;28;20686;-80
2022/01/23 13:41:24;;;;;;;12.93;11.77;;;6.10;99.90;;;;;;5107964;28;20293;-81
2022/01/23 13:52:42;;;;;;;8.68;6.15;;;5.90;99.90;;;;;;5062109;27;1240835;-80
2022/01/23 13:58:31;;;;;;;10.80;9.90;;;5.80;99.90;;;;;;5079020;28;20211;-81
2022/01/23 14:01:32;;;;;;;7.90;7.20;;;5.90;99.90;;;;;;5064494;28;20194;-79
2022/01/23 14:04:07;;;;;;;14.13;13.03;;;5.90;99.90;;;;;;5075662;28;20194;-79
2022/01/23 14:06:41;;;;;;;14.33;13.03;;;5.80;99.90;;;;;;5045815;28;20194;-80
2022/01/23 14:09:22;;;;;;;8.77;7.90;;;5.80;99.90;;;;;;5066543;28;20263;-81
2022/01/23 14:12:16;;;;;;;9.97;7.57;;;5.80;99.90;;;;;;5050934;28;20589;-81
2022/01/23 14:15:25;;;;;;;9.43;8.30;;;5.80;99.90;;;;;;5047017;28;20202;-81
2022/01/23 14:18:10;;;;;;;7.57;6.57;;;5.70;99.90;;;;;;5060474;28;20222;-80
2022/01/23 14:20:53;;;;;;;8.73;7.83;;;5.70;99.90;;;;;;5054035;28;20651;-80
2022/01/23 14:23:25;;;;;;;10.87;9.57;;;5.70;99.90;;;;;;5064330;28;20206;-79
2022/01/23 14:26:06;;;;;;;10.20;8.33;;;5.70;99.90;;;;;;5047386;28;20223;-80
2022/01/23 14:28:39;;;;;;;8.27;6.37;;;5.60;99.90;;;;;;5042697;28;20842;-80
2022/01/23 14:31:16;;;;;;;11.63;10.43;;;5.70;99.90;;;;;;5053875;28;20206;-80
2022/01/23 14:33:44;;;;;;;11.40;10.30;;;5.70;99.90;;;;;;5050854;28;20222;-79
2022/01/23 14:36:16;;;;;;;12.83;11.63;;;5.60;99.90;;;;;;5060890;28;20188;-79
2022/01/23 14:38:54;;;;;;;10.67;9.23;;;5.60;99.90;;;;;;5057976;28;20218;-80
2022/01/23 14:41:24;;;;;;;14.07;12.67;;;5.60;99.90;;;;;;5055958;28;20190;-80
2022/01/23 14:43:54;;;;;;;14.00;12.80;;;5.60;99.90;;;;;;5051545;28;20224;-80
2022/01/23 14:46:23;;;;;;;11.77;10.77;;;5.50;99.90;;;;;;5061197;28;20290;-80
2022/01/23 14:48:59;;;;;;;14.40;13.17;;;5.50;99.90;;;;;;5038252;28;20249;-79
2022/01/23 14:51:34;;;;;;;11.83;9.23;;;5.60;99.90;;;;;;5043939;28;20225;-80
2022/01/23 14:58:08;;;;;;;17.80;16.30;;;5.50;99.90;;;;;;5030561;22;20656;-80
2022/01/23 15:01:26;;;;;;;16.40;14.70;;;5.50;99.90;;;;;;5061737;28;20266;-80
2022/01/23 15:04:38;;;;;;;11.47;8.77;;;5.40;99.90;;;;;;5058261;28;20198;-80
2022/01/23 15:14:25;;;;;;;9.37;8.37;;;5.20;99.90;;;;;;5040663;28;20196;-79
2022/01/23 15:17:04;;;;;;;13.03;12.00;;;5.20;99.90;;;;;;5041376;28;20263;-80
2022/01/23 15:19:45;;;;;;;7.03;5.50;;;5.20;99.90;;;;;;5041137;28;20249;-80
2022/01/23 15:22:27;;;;;;;8.23;6.30;;;5.20;99.90;;;;;;5040749;28;20192;-81
2022/01/23 15:25:02;;;;;;;9.23;8.03;;;5.20;99.90;;;;;;5043929;28;20206;-79
2022/01/23 15:27:31;;;;;;;10.67;9.87;;;5.10;99.90;;;;;;5043092;28;20608;-80
2022/01/23 15:30:23;;;;;;;12.43;11.33;;;5.10;99.90;;;;;;5041979;28;20202;-79
2022/01/23 15:32:52;;;;;;;12.00;11.10;;;5.10;99.90;;;;;;5040313;28;20334;-79
2022/01/23 15:35:29;;;;;;;12.20;11.20;;;5.00;99.90;;;;;;5042512;28;20192;-80
2022/01/23 15:38:01;;;;;;;5.87;5.27;;;5.00;99.90;;;;;;5042183;28;20605;-79
2022/01/23 15:40:35;;;;;;;8.23;7.53;;;5.00;99.90;;;;;;5042019;28;20196;-79
2022/01/23 15:43:32;;;;;;;6.60;5.90;;;5.00;99.90;;;;;;5042959;28;20192;-81
2022/01/23 15:46:01;;;;;;;5.40;4.90;;;5.00;99.90;;;;;;5037229;28;20196;-82
2022/01/23 15:48:38;;;;;;;6.93;4.50;;;4.90;99.90;;;;;;5041188;28;20215;-80
2022/01/23 15:51:22;;;;;;;5.73;5.20;;;4.90;99.90;;;;;;5037049;28;20251;-81
2022/01/23 15:54:02;;;;;;;8.10;7.03;;;4.90;99.90;;;;;;5029435;28;20198;-81
2022/01/23 15:56:39;;;;;;;7.10;6.07;;;4.90;99.90;;;;;;5044581;28;20273;-82
2022/01/23 15:59:10;;;;;;;6.50;5.80;;;4.90;99.90;;;;;;5034970;28;20226;-80
2022/01/23 16:01:55;;;;;;;8.23;7.53;;;4.90;99.90;;;;;;5039911;28;20599;-80
2022/01/23 16:04:37;;;;;;;;;;;;;;;;;;;;;
2022/01/23 16:07:23;;;;;;;5.97;5.30;;;4.90;99.90;;;;;;5041065;28;20196;-81
2022/01/23 16:10:34;;;;;;;6.87;5.27;;;4.90;99.90;;;;;;5037230;28;20204;-80
2022/01/23 16:13:24;;;;;;;11.40;10.60;;;4.80;99.90;;;;;;5036510;28;20200;-83
2022/01/23 16:15:53;;;;;;;12.07;11.17;;;4.80;99.90;;;;;;5031020;28;20215;-79
2022/01/23 16:18:22;;;;;;;12.63;11.63;;;4.80;99.90;;;;;;5039203;28;20694;-80
2022/01/23 16:20:49;;;;;;;11.37;10.50;;;4.70;99.90;;;;;;5040230;28;20257;-80
2022/01/23 16:23:16;;;;;;;11.27;10.37;;;4.70;99.90;;;;;;5040335;28;20199;-81
2022/01/23 16:25:43;;;;;;;11.87;10.87;;;4.60;99.90;;;;;;5030780;28;20202;-80